sensor_id;sensor_type;location;lat;lon;timestamp;temperature;humidity
28608;DHT22;15802;45.654;13.804;2023-06-22T00:00:29;24.20;99.90
28608;DHT22;15802;45.654;13.804;2023-06-22T00:02:55;24.20;99.90
28608;DHT22;15802;45.654;13.804;2023-06-22T00:05:21;24.20;99.90
28608;DHT22;15802;45.654;13.804;2023-06-22T00:07:47;24.10;99.90
28608;DHT22;15802;45.654;13.804;2023-06-22T00:10:12;24.10;99.90
28608;DHT22;15802;45.654;13.804;2023-06-22T00:12:38;24.10;99.90
28608;DHT22;15802;45.654;13.804;2023-06-22T00:15:04;24.10;99.90
28608;DHT22;15802;45.654;13.804;2023-06-22T00:17:29;24.10;99.90
28608;DHT22;15802;45.654;13.804;2023-06-22T00:19:55;24.00;99.90
28608;DHT22;15802;45.654;13.804;2023-06-22T00:22:24;24.00;99.90
28608;DHT22;15802;45.654;13.804;2023-06-22T00:24:54;24.00;99.90
28608;DHT22;15802;45.654;13.804;2023-06-22T00:27:20;24.00;99.90
28608;DHT22;15802;45.654;13.804;2023-06-22T00:29:46;23.90;99.90
28608;DHT22;15802;45.654;13.804;2023-06-22T00:32:11;23.90;99.90
28608;DHT22;15802;45.654;13.804;2023-06-22T00:34:37;23.80;99.90
28608;DHT22;15802;45.654;13.804;2023-06-22T00:37:03;23.80;99.90
28608;DHT22;15802;45.654;13.804;2023-06-22T00:39:28;23.90;99.90
28608;DHT22;15802;45.654;13.804;2023-06-22T00:41:54;23.90;99.90
28608;DHT22;15802;45.654;13.804;2023-06-22T00:44:20;24.00;99.90
28608;DHT22;15802;45.654;13.804;2023-06-22T00:46:45;24.00;99.90
28608;DHT22;15802;45.654;13.804;2023-06-22T00:49:11;23.90;99.90
28608;DHT22;15802;45.654;13.804;2023-06-22T00:51:37;23.90;99.90
28608;DHT22;15802;45.654;13.804;2023-06-22T00:54:04;23.80;99.90
28608;DHT22;15802;45.654;13.804;2023-06-22T00:56:30;23.80;99.90
28608;DHT22;15802;45.654;13.804;2023-06-22T00:58:58;23.80;99.90
28608;DHT22;15802;45.654;13.804;2023-06-22T01:01:24;23.80;99.90
28608;DHT22;15802;45.654;13.804;2023-06-22T01:03:50;23.80;99.90
28608;DHT22;15802;45.654;13.804;2023-06-22T01:06:19;23.90;99.90
28608;DHT22;15802;45.654;13.804;2023-06-22T01:08:51;23.90;99.90
28608;DHT22;15802;45.654;13.804;2023-06-22T01:11:22;23.90;99.90
28608;DHT22;15802;45.654;13.804;2023-06-22T01:14:00;23.90;99.90
28608;DHT22;15802;45.654;13.804;2023-06-22T01:16:30;23.90;99.90
28608;DHT22;15802;45.654;13.804;2023-06-22T01:18:57;23.90;99.90
28608;DHT22;15802;45.654;13.804;2023-06-22T01:21:23;23.90;99.90
28608;DHT22;15802;45.654;13.804;2023-06-22T01:26:37;23.90;99.90
28608;DHT22;15802;45.654;13.804;2023-06-22T01:29:04;23.90;99.90
28608;DHT22;15802;45.654;13.804;2023-06-22T01:31:30;23.90;99.90
28608;DHT22;15802;45.654;13.804;2023-06-22T01:34:00;23.80;99.90
28608;DHT22;15802;45.654;13.804;2023-06-22T01:36:27;23.80;99.90
28608;DHT22;15802;45.654;13.804;2023-06-22T01:38:53;23.70;99.90
28608;DHT22;15802;45.654;13.804;2023-06-22T01:41:20;23.70;99.90
28608;DHT22;15802;45.654;13.804;2023-06-22T01:43:46;23.70;99.90
28608;DHT22;15802;45.654;13.804;2023-06-22T01:46:13;23.70;99.90
28608;DHT22;15802;45.654;13.804;2023-06-22T01:48:39;23.70;99.90
28608;DHT22;15802;45.654;13.804;2023-06-22T01:51:05;23.70;99.90
28608;DHT22;15802;45.654;13.804;2023-06-22T01:53:30;23.70;99.90
28608;DHT22;15802;45.654;13.804;2023-06-22T01:55:56;23.70;99.90
28608;DHT22;15802;45.654;13.804;2023-06-22T01:58:23;23.70;99.90
28608;DHT22;15802;45.654;13.804;2023-06-22T02:03:33;23.70;99.90
28608;DHT22;15802;45.654;13.804;2023-06-22T02:06:04;23.70;99.90
28608;DHT22;15802;45.654;13.804;2023-06-22T02:08:33;23.70;99.90
28608;DHT22;15802;45.654;13.804;2023-06-22T02:11:00;23.70;99.90
28608;DHT22;15802;45.654;13.804;2023-06-22T02:13:27;23.70;99.90
28608;DHT22;15802;45.654;13.804;2023-06-22T02:15:53;23.70;99.90
28608;DHT22;15802;45.654;13.804;2023-06-22T02:18:19;23.70;99.90
28608;DHT22;15802;45.654;13.804;2023-06-22T02:20:46;23.70;99.90
28608;DHT22;15802;45.654;13.804;2023-06-22T02:23:11;23.70;99.90
28608;DHT22;15802;45.654;13.804;2023-06-22T02:25:37;23.70;99.90
28608;DHT22;15802;45.654;13.804;2023-06-22T02:28:03;23.70;99.90
28608;DHT22;15802;45.654;13.804;2023-06-22T02:30:28;23.70;99.90
28608;DHT22;15802;45.654;13.804;2023-06-22T02:32:54;23.70;99.90
28608;DHT22;15802;45.654;13.804;2023-06-22T02:35:25;23.80;99.90
28608;DHT22;15802;45.654;13.804;2023-06-22T02:37:51;23.80;99.90
28608;DHT22;15802;45.654;13.804;2023-06-22T02:40:17;23.70;99.90
28608;DHT22;15802;45.654;13.804;2023-06-22T02:42:42;23.70;99.90
28608;DHT22;15802;45.654;13.804;2023-06-22T02:45:08;23.70;99.90
28608;DHT22;15802;45.654;13.804;2023-06-22T02:47:34;23.70;99.90
28608;DHT22;15802;45.654;13.804;2023-06-22T02:50:00;23.70;99.90
28608;DHT22;15802;45.654;13.804;2023-06-22T02:52:26;23.70;99.90
28608;DHT22;15802;45.654;13.804;2023-06-22T02:54:52;23.70;99.90
28608;DHT22;15802;45.654;13.804;2023-06-22T02:57:17;23.70;99.90
28608;DHT22;15802;45.654;13.804;2023-06-22T02:59:43;23.60;99.90
28608;DHT22;15802;45.654;13.804;2023-06-22T03:02:09;23.60;99.90
28608;DHT22;15802;45.654;13.804;2023-06-22T03:04:35;23.60;99.90
28608;DHT22;15802;45.654;13.804;2023-06-22T03:07:01;23.60;99.90
28608;DHT22;15802;45.654;13.804;2023-06-22T03:09:27;23.60;99.90
28608;DHT22;15802;45.654;13.804;2023-06-22T03:11:54;23.70;99.90
28608;DHT22;15802;45.654;13.804;2023-06-22T03:14:19;23.60;99.90
28608;DHT22;15802;45.654;13.804;2023-06-22T03:16:47;23.60;99.90
28608;DHT22;15802;45.654;13.804;2023-06-22T03:19:13;23.60;99.90
28608;DHT22;15802;45.654;13.804;2023-06-22T03:21:39;23.60;99.90
28608;DHT22;15802;45.654;13.804;2023-06-22T03:24:05;23.60;99.90
28608;DHT22;15802;45.654;13.804;2023-06-22T03:26:31;23.60;99.90
28608;DHT22;15802;45.654;13.804;2023-06-22T03:28:56;23.60;99.90
28608;DHT22;15802;45.654;13.804;2023-06-22T03:31:22;23.60;99.90
28608;DHT22;15802;45.654;13.804;2023-06-22T03:33:49;23.60;99.90
28608;DHT22;15802;45.654;13.804;2023-06-22T03:36:16;23.60;99.90
28608;DHT22;15802;45.654;13.804;2023-06-22T03:38:47;23.60;99.90
28608;DHT22;15802;45.654;13.804;2023-06-22T03:41:13;23.60;99.90
28608;DHT22;15802;45.654;13.804;2023-06-22T03:43:39;23.50;99.90
28608;DHT22;15802;45.654;13.804;2023-06-22T03:46:05;23.60;99.90
28608;DHT22;15802;45.654;13.804;2023-06-22T03:48:30;23.60;99.90
28608;DHT22;15802;45.654;13.804;2023-06-22T03:50:56;23.60;99.90
28608;DHT22;15802;45.654;13.804;2023-06-22T03:53:22;23.60;99.90
28608;DHT22;15802;45.654;13.804;2023-06-22T03:55:48;23.50;99.90
28608;DHT22;15802;45.654;13.804;2023-06-22T03:58:14;23.50;99.90
28608;DHT22;15802;45.654;13.804;2023-06-22T04:00:40;23.50;99.90
28608;DHT22;15802;45.654;13.804;2023-06-22T04:03:05;23.50;99.90
28608;DHT22;15802;45.654;13.804;2023-06-22T04:05:32;23.50;99.90
28608;DHT22;15802;45.654;13.804;2023-06-22T04:07:58;23.50;99.90
28608;DHT22;15802;45.654;13.804;2023-06-22T04:10:24;23.50;99.90
28608;DHT22;15802;45.654;13.804;2023-06-22T04:12:49;23.50;99.90
28608;DHT22;15802;45.654;13.804;2023-06-22T04:15:15;23.50;99.90
28608;DHT22;15802;45.654;13.804;2023-06-22T04:17:41;23.50;99.90
28608;DHT22;15802;45.654;13.804;2023-06-22T04:20:07;23.50;99.90
28608;DHT22;15802;45.654;13.804;2023-06-22T04:22:33;23.50;99.90
28608;DHT22;15802;45.654;13.804;2023-06-22T04:24:58;23.50;99.90
28608;DHT22;15802;45.654;13.804;2023-06-22T04:27:24;23.50;99.90
28608;DHT22;15802;45.654;13.804;2023-06-22T04:29:49;23.50;99.90
28608;DHT22;15802;45.654;13.804;2023-06-22T04:32:16;23.50;99.90
28608;DHT22;15802;45.654;13.804;2023-06-22T04:34:42;23.50;99.90
28608;DHT22;15802;45.654;13.804;2023-06-22T04:37:08;23.60;99.90
28608;DHT22;15802;45.654;13.804;2023-06-22T04:39:33;23.60;99.90
28608;DHT22;15802;45.654;13.804;2023-06-22T04:41:59;23.60;99.90
28608;DHT22;15802;45.654;13.804;2023-06-22T04:44:26;23.60;99.90
28608;DHT22;15802;45.654;13.804;2023-06-22T04:46:58;23.60;99.90
28608;DHT22;15802;45.654;13.804;2023-06-22T04:49:27;23.60;99.90
28608;DHT22;15802;45.654;13.804;2023-06-22T04:51:58;23.60;99.90
28608;DHT22;15802;45.654;13.804;2023-06-22T04:54:24;23.60;99.90
28608;DHT22;15802;45.654;13.804;2023-06-22T04:56:50;23.60;99.90
28608;DHT22;15802;45.654;13.804;2023-06-22T04:59:23;23.70;99.90
28608;DHT22;15802;45.654;13.804;2023-06-22T05:01:54;23.70;99.90
28608;DHT22;15802;45.654;13.804;2023-06-22T05:04:19;23.70;99.90
28608;DHT22;15802;45.654;13.804;2023-06-22T05:06:45;23.80;99.90
28608;DHT22;15802;45.654;13.804;2023-06-22T05:09:11;23.80;99.90
28608;DHT22;15802;45.654;13.804;2023-06-22T05:11:37;23.90;99.90
28608;DHT22;15802;45.654;13.804;2023-06-22T05:14:03;23.90;99.90
28608;DHT22;15802;45.654;13.804;2023-06-22T05:16:28;24.00;99.90
28608;DHT22;15802;45.654;13.804;2023-06-22T05:18:54;24.00;99.90
28608;DHT22;15802;45.654;13.804;2023-06-22T05:21:24;24.10;99.90
28608;DHT22;15802;45.654;13.804;2023-06-22T05:23:50;24.20;99.90
28608;DHT22;15802;45.654;13.804;2023-06-22T05:26:16;24.20;99.90
28608;DHT22;15802;45.654;13.804;2023-06-22T05:28:42;24.30;99.90
28608;DHT22;15802;45.654;13.804;2023-06-22T05:31:12;24.40;99.90
28608;DHT22;15802;45.654;13.804;2023-06-22T05:33:37;24.50;99.90
28608;DHT22;15802;45.654;13.804;2023-06-22T05:36:03;24.60;99.90
28608;DHT22;15802;45.654;13.804;2023-06-22T05:38:29;24.60;99.90
28608;DHT22;15802;45.654;13.804;2023-06-22T05:40:55;24.70;99.90
28608;DHT22;15802;45.654;13.804;2023-06-22T05:43:20;24.70;99.90
28608;DHT22;15802;45.654;13.804;2023-06-22T05:45:46;24.70;99.90
28608;DHT22;15802;45.654;13.804;2023-06-22T05:50:40;24.90;99.90
28608;DHT22;15802;45.654;13.804;2023-06-22T05:53:06;25.00;99.90
28608;DHT22;15802;45.654;13.804;2023-06-22T05:55:32;25.00;99.90
28608;DHT22;15802;45.654;13.804;2023-06-22T05:57:58;25.10;99.90
28608;DHT22;15802;45.654;13.804;2023-06-22T06:00:23;25.20;99.90
28608;DHT22;15802;45.654;13.804;2023-06-22T06:02:49;25.30;99.90
28608;DHT22;15802;45.654;13.804;2023-06-22T06:05:15;25.40;99.90
28608;DHT22;15802;45.654;13.804;2023-06-22T06:07:42;25.40;99.90
28608;DHT22;15802;45.654;13.804;2023-06-22T06:10:08;25.60;99.90
28608;DHT22;15802;45.654;13.804;2023-06-22T06:12:36;25.60;99.90
28608;DHT22;15802;45.654;13.804;2023-06-22T06:15:02;25.70;99.90
28608;DHT22;15802;45.654;13.804;2023-06-22T06:17:27;25.80;99.90
28608;DHT22;15802;45.654;13.804;2023-06-22T06:19:53;25.80;99.90
28608;DHT22;15802;45.654;13.804;2023-06-22T06:22:19;25.90;99.90
28608;DHT22;15802;45.654;13.804;2023-06-22T06:24:47;26.00;99.90
28608;DHT22;15802;45.654;13.804;2023-06-22T06:27:13;26.00;99.90
28608;DHT22;15802;45.654;13.804;2023-06-22T06:29:38;26.20;99.90
28608;DHT22;15802;45.654;13.804;2023-06-22T06:32:04;26.30;99.90
28608;DHT22;15802;45.654;13.804;2023-06-22T06:34:30;26.30;99.90
28608;DHT22;15802;45.654;13.804;2023-06-22T06:36:55;26.50;99.90
28608;DHT22;15802;45.654;13.804;2023-06-22T06:39:21;26.50;99.90
28608;DHT22;15802;45.654;13.804;2023-06-22T06:41:47;26.50;99.90
28608;DHT22;15802;45.654;13.804;2023-06-22T06:44:13;26.60;99.90
28608;DHT22;15802;45.654;13.804;2023-06-22T06:46:39;26.70;99.90
28608;DHT22;15802;45.654;13.804;2023-06-22T06:49:05;26.70;99.90
28608;DHT22;15802;45.654;13.804;2023-06-22T06:51:30;26.70;99.90
28608;DHT22;15802;45.654;13.804;2023-06-22T06:53:56;26.80;99.90
28608;DHT22;15802;45.654;13.804;2023-06-22T06:56:22;26.80;99.90
28608;DHT22;15802;45.654;13.804;2023-06-22T06:58:49;26.90;99.90
28608;DHT22;15802;45.654;13.804;2023-06-22T07:01:15;26.90;99.90
28608;DHT22;15802;45.654;13.804;2023-06-22T07:03:41;27.00;99.90
28608;DHT22;15802;45.654;13.804;2023-06-22T07:06:07;27.10;99.90
28608;DHT22;15802;45.654;13.804;2023-06-22T07:08:33;27.10;99.90
28608;DHT22;15802;45.654;13.804;2023-06-22T07:11:00;27.10;99.90
28608;DHT22;15802;45.654;13.804;2023-06-22T07:13:26;27.10;99.90
28608;DHT22;15802;45.654;13.804;2023-06-22T07:15:52;27.20;99.90
28608;DHT22;15802;45.654;13.804;2023-06-22T07:18:17;27.20;99.90
28608;DHT22;15802;45.654;13.804;2023-06-22T07:20:43;27.20;99.90
28608;DHT22;15802;45.654;13.804;2023-06-22T07:23:09;27.30;99.90
28608;DHT22;15802;45.654;13.804;2023-06-22T07:25:37;27.30;99.90
28608;DHT22;15802;45.654;13.804;2023-06-22T07:28:04;27.40;99.90
28608;DHT22;15802;45.654;13.804;2023-06-22T07:30:30;27.40;99.90
28608;DHT22;15802;45.654;13.804;2023-06-22T07:32:56;27.40;99.90
28608;DHT22;15802;45.654;13.804;2023-06-22T07:35:22;27.50;99.90
28608;DHT22;15802;45.654;13.804;2023-06-22T07:37:48;27.50;99.90
28608;DHT22;15802;45.654;13.804;2023-06-22T07:40:13;27.60;99.90
28608;DHT22;15802;45.654;13.804;2023-06-22T07:42:39;27.60;99.90
28608;DHT22;15802;45.654;13.804;2023-06-22T07:45:05;27.70;99.90
28608;DHT22;15802;45.654;13.804;2023-06-22T07:47:33;27.70;99.90
28608;DHT22;15802;45.654;13.804;2023-06-22T07:50:00;27.80;99.90
28608;DHT22;15802;45.654;13.804;2023-06-22T07:52:27;27.90;99.90
28608;DHT22;15802;45.654;13.804;2023-06-22T07:54:53;27.90;99.90
28608;DHT22;15802;45.654;13.804;2023-06-22T07:57:18;27.90;99.90
28608;DHT22;15802;45.654;13.804;2023-06-22T07:59:44;28.00;99.90
28608;DHT22;15802;45.654;13.804;2023-06-22T08:02:11;28.00;99.90
28608;DHT22;15802;45.654;13.804;2023-06-22T08:04:36;28.10;99.90
28608;DHT22;15802;45.654;13.804;2023-06-22T08:07:02;28.10;99.90
28608;DHT22;15802;45.654;13.804;2023-06-22T08:09:29;28.20;99.90
28608;DHT22;15802;45.654;13.804;2023-06-22T08:11:55;28.30;99.90
28608;DHT22;15802;45.654;13.804;2023-06-22T08:14:23;28.30;99.90
28608;DHT22;15802;45.654;13.804;2023-06-22T08:16:49;28.40;99.90
28608;DHT22;15802;45.654;13.804;2023-06-22T08:19:15;28.40;99.90
28608;DHT22;15802;45.654;13.804;2023-06-22T08:21:42;28.50;99.90
28608;DHT22;15802;45.654;13.804;2023-06-22T08:24:07;28.60;99.90
28608;DHT22;15802;45.654;13.804;2023-06-22T08:26:33;28.60;99.90
28608;DHT22;15802;45.654;13.804;2023-06-22T08:29:03;28.70;99.90
28608;DHT22;15802;45.654;13.804;2023-06-22T08:31:29;28.70;99.90
28608;DHT22;15802;45.654;13.804;2023-06-22T08:33:55;28.80;99.90
28608;DHT22;15802;45.654;13.804;2023-06-22T08:36:21;28.80;99.90
28608;DHT22;15802;45.654;13.804;2023-06-22T08:38:47;28.90;99.90
28608;DHT22;15802;45.654;13.804;2023-06-22T08:41:16;28.90;99.90
28608;DHT22;15802;45.654;13.804;2023-06-22T08:43:43;29.00;99.90
28608;DHT22;15802;45.654;13.804;2023-06-22T08:46:09;29.00;99.90
28608;DHT22;15802;45.654;13.804;2023-06-22T08:48:35;29.00;99.90
28608;DHT22;15802;45.654;13.804;2023-06-22T08:51:01;29.00;99.90
28608;DHT22;15802;45.654;13.804;2023-06-22T08:53:27;29.10;99.90
28608;DHT22;15802;45.654;13.804;2023-06-22T08:55:53;29.10;99.90
28608;DHT22;15802;45.654;13.804;2023-06-22T08:58:19;29.20;99.90
28608;DHT22;15802;45.654;13.804;2023-06-22T09:00:46;29.30;99.90
28608;DHT22;15802;45.654;13.804;2023-06-22T09:03:12;29.40;99.90
28608;DHT22;15802;45.654;13.804;2023-06-22T09:05:38;29.40;99.90
28608;DHT22;15802;45.654;13.804;2023-06-22T09:08:04;29.40;99.90
28608;DHT22;15802;45.654;13.804;2023-06-22T09:10:30;29.40;99.90
28608;DHT22;15802;45.654;13.804;2023-06-22T09:12:56;29.50;99.90
28608;DHT22;15802;45.654;13.804;2023-06-22T09:15:22;29.50;99.90
28608;DHT22;15802;45.654;13.804;2023-06-22T09:17:48;29.50;99.90
28608;DHT22;15802;45.654;13.804;2023-06-22T09:20:14;29.50;99.90
28608;DHT22;15802;45.654;13.804;2023-06-22T09:22:40;29.50;99.90
28608;DHT22;15802;45.654;13.804;2023-06-22T09:25:06;29.60;99.90
28608;DHT22;15802;45.654;13.804;2023-06-22T09:27:31;29.60;99.90
28608;DHT22;15802;45.654;13.804;2023-06-22T09:29:57;29.60;99.90
28608;DHT22;15802;45.654;13.804;2023-06-22T09:32:24;29.60;99.90
28608;DHT22;15802;45.654;13.804;2023-06-22T09:34:50;29.70;99.90
28608;DHT22;15802;45.654;13.804;2023-06-22T09:37:16;29.70;99.90
28608;DHT22;15802;45.654;13.804;2023-06-22T09:39:41;29.80;99.90
28608;DHT22;15802;45.654;13.804;2023-06-22T09:42:07;29.90;99.90
28608;DHT22;15802;45.654;13.804;2023-06-22T09:44:33;29.90;99.90
28608;DHT22;15802;45.654;13.804;2023-06-22T09:46:59;30.00;99.90
28608;DHT22;15802;45.654;13.804;2023-06-22T09:49:25;30.20;99.90
28608;DHT22;15802;45.654;13.804;2023-06-22T09:51:51;30.20;99.90
28608;DHT22;15802;45.654;13.804;2023-06-22T09:54:17;30.30;99.90
28608;DHT22;15802;45.654;13.804;2023-06-22T09:56:43;30.30;99.90
28608;DHT22;15802;45.654;13.804;2023-06-22T09:59:09;30.30;99.90
28608;DHT22;15802;45.654;13.804;2023-06-22T10:01:35;30.30;99.90
28608;DHT22;15802;45.654;13.804;2023-06-22T10:04:01;30.40;99.90
28608;DHT22;15802;45.654;13.804;2023-06-22T10:06:27;30.50;99.90
28608;DHT22;15802;45.654;13.804;2023-06-22T10:08:52;30.60;99.90
28608;DHT22;15802;45.654;13.804;2023-06-22T10:11:18;30.50;99.90
28608;DHT22;15802;45.654;13.804;2023-06-22T10:13:44;30.60;99.90
28608;DHT22;15802;45.654;13.804;2023-06-22T10:16:10;30.70;99.90
28608;DHT22;15802;45.654;13.804;2023-06-22T10:18:36;30.80;99.90
28608;DHT22;15802;45.654;13.804;2023-06-22T10:21:02;30.80;99.90
28608;DHT22;15802;45.654;13.804;2023-06-22T10:23:27;30.80;99.90
28608;DHT22;15802;45.654;13.804;2023-06-22T10:25:53;30.90;99.90
28608;DHT22;15802;45.654;13.804;2023-06-22T10:28:19;31.00;99.90
28608;DHT22;15802;45.654;13.804;2023-06-22T10:30:44;31.10;99.90
28608;DHT22;15802;45.654;13.804;2023-06-22T10:33:10;31.30;99.90
28608;DHT22;15802;45.654;13.804;2023-06-22T10:35:36;31.40;99.90
28608;DHT22;15802;45.654;13.804;2023-06-22T10:38:03;31.40;99.90
28608;DHT22;15802;45.654;13.804;2023-06-22T10:40:29;31.60;99.90
28608;DHT22;15802;45.654;13.804;2023-06-22T10:42:55;31.60;99.90
28608;DHT22;15802;45.654;13.804;2023-06-22T10:45:21;31.70;99.90
28608;DHT22;15802;45.654;13.804;2023-06-22T10:47:46;31.70;99.90
28608;DHT22;15802;45.654;13.804;2023-06-22T10:50:12;31.70;99.90
28608;DHT22;15802;45.654;13.804;2023-06-22T10:52:38;31.90;99.90
28608;DHT22;15802;45.654;13.804;2023-06-22T10:55:04;32.00;99.90
28608;DHT22;15802;45.654;13.804;2023-06-22T10:57:30;32.00;99.90
28608;DHT22;15802;45.654;13.804;2023-06-22T10:59:56;32.00;99.90
28608;DHT22;15802;45.654;13.804;2023-06-22T11:02:21;32.10;99.90
28608;DHT22;15802;45.654;13.804;2023-06-22T11:04:47;32.10;99.90
28608;DHT22;15802;45.654;13.804;2023-06-22T11:07:13;32.20;99.90
28608;DHT22;15802;45.654;13.804;2023-06-22T11:09:39;32.20;99.90
28608;DHT22;15802;45.654;13.804;2023-06-22T11:12:05;32.10;99.90
28608;DHT22;15802;45.654;13.804;2023-06-22T11:14:31;32.10;99.90
28608;DHT22;15802;45.654;13.804;2023-06-22T11:16:57;32.20;99.90
28608;DHT22;15802;45.654;13.804;2023-06-22T11:19:23;32.20;99.90
28608;DHT22;15802;45.654;13.804;2023-06-22T11:21:48;32.20;99.90
28608;DHT22;15802;45.654;13.804;2023-06-22T11:24:14;32.20;99.90
28608;DHT22;15802;45.654;13.804;2023-06-22T11:26:41;32.20;99.90
28608;DHT22;15802;45.654;13.804;2023-06-22T11:29:06;32.20;99.90
28608;DHT22;15802;45.654;13.804;2023-06-22T11:31:34;32.10;99.90
28608;DHT22;15802;45.654;13.804;2023-06-22T11:33:59;32.10;99.90
28608;DHT22;15802;45.654;13.804;2023-06-22T11:36:25;31.90;99.90
28608;DHT22;15802;45.654;13.804;2023-06-22T11:38:51;31.90;99.90
28608;DHT22;15802;45.654;13.804;2023-06-22T11:41:17;31.90;99.90
28608;DHT22;15802;45.654;13.804;2023-06-22T11:43:43;31.90;99.90
28608;DHT22;15802;45.654;13.804;2023-06-22T11:46:08;32.10;99.90
28608;DHT22;15802;45.654;13.804;2023-06-22T11:48:34;32.20;99.90
28608;DHT22;15802;45.654;13.804;2023-06-22T11:51:00;32.20;99.90
28608;DHT22;15802;45.654;13.804;2023-06-22T11:53:26;32.00;99.90
28608;DHT22;15802;45.654;13.804;2023-06-22T11:55:52;32.00;99.90
28608;DHT22;15802;45.654;13.804;2023-06-22T11:58:19;32.00;99.90
28608;DHT22;15802;45.654;13.804;2023-06-22T12:00:44;32.00;99.90
28608;DHT22;15802;45.654;13.804;2023-06-22T12:03:10;31.90;99.90
28608;DHT22;15802;45.654;13.804;2023-06-22T12:05:37;31.90;99.90
28608;DHT22;15802;45.654;13.804;2023-06-22T12:08:03;31.80;99.90
28608;DHT22;15802;45.654;13.804;2023-06-22T12:10:29;31.60;99.90
28608;DHT22;15802;45.654;13.804;2023-06-22T12:12:55;31.50;99.90
28608;DHT22;15802;45.654;13.804;2023-06-22T12:15:20;31.40;99.90
28608;DHT22;15802;45.654;13.804;2023-06-22T12:17:46;31.40;99.90
28608;DHT22;15802;45.654;13.804;2023-06-22T12:20:13;31.40;99.90
28608;DHT22;15802;45.654;13.804;2023-06-22T12:22:39;31.50;99.90
28608;DHT22;15802;45.654;13.804;2023-06-22T12:25:05;31.70;99.90
28608;DHT22;15802;45.654;13.804;2023-06-22T12:27:31;31.90;99.90
28608;DHT22;15802;45.654;13.804;2023-06-22T12:29:56;32.00;99.90
28608;DHT22;15802;45.654;13.804;2023-06-22T12:32:22;32.20;99.90
28608;DHT22;15802;45.654;13.804;2023-06-22T12:34:48;32.20;99.90
28608;DHT22;15802;45.654;13.804;2023-06-22T12:37:13;32.20;99.90
28608;DHT22;15802;45.654;13.804;2023-06-22T12:39:40;32.30;99.90
28608;DHT22;15802;45.654;13.804;2023-06-22T12:42:06;32.40;99.90
28608;DHT22;15802;45.654;13.804;2023-06-22T12:44:34;32.40;99.90
28608;DHT22;15802;45.654;13.804;2023-06-22T12:47:00;32.50;99.90
28608;DHT22;15802;45.654;13.804;2023-06-22T12:49:25;32.40;99.90
28608;DHT22;15802;45.654;13.804;2023-06-22T12:51:51;32.50;99.90
28608;DHT22;15802;45.654;13.804;2023-06-22T12:54:17;32.50;99.90
28608;DHT22;15802;45.654;13.804;2023-06-22T12:56:43;32.50;99.90
28608;DHT22;15802;45.654;13.804;2023-06-22T12:59:10;32.50;99.90
28608;DHT22;15802;45.654;13.804;2023-06-22T13:01:36;32.40;99.90
28608;DHT22;15802;45.654;13.804;2023-06-22T13:04:02;32.40;99.90
28608;DHT22;15802;45.654;13.804;2023-06-22T13:06:28;32.50;99.90
28608;DHT22;15802;45.654;13.804;2023-06-22T13:08:57;32.60;99.90
28608;DHT22;15802;45.654;13.804;2023-06-22T13:11:22;32.40;99.90
28608;DHT22;15802;45.654;13.804;2023-06-22T13:13:48;32.40;99.90
28608;DHT22;15802;45.654;13.804;2023-06-22T13:16:14;32.30;99.90
28608;DHT22;15802;45.654;13.804;2023-06-22T13:18:39;32.40;99.90
28608;DHT22;15802;45.654;13.804;2023-06-22T13:21:05;32.40;99.90
28608;DHT22;15802;45.654;13.804;2023-06-22T13:23:32;32.40;99.90
28608;DHT22;15802;45.654;13.804;2023-06-22T13:25:57;32.30;99.90
28608;DHT22;15802;45.654;13.804;2023-06-22T13:28:23;32.30;99.90
28608;DHT22;15802;45.654;13.804;2023-06-22T13:30:49;32.30;99.90
28608;DHT22;15802;45.654;13.804;2023-06-22T13:33:15;32.30;99.90
28608;DHT22;15802;45.654;13.804;2023-06-22T13:35:41;32.40;99.90
28608;DHT22;15802;45.654;13.804;2023-06-22T13:38:08;32.40;99.90
28608;DHT22;15802;45.654;13.804;2023-06-22T13:40:34;32.30;99.90
28608;DHT22;15802;45.654;13.804;2023-06-22T13:43:04;32.20;99.90
28608;DHT22;15802;45.654;13.804;2023-06-22T13:45:29;32.20;99.90
28608;DHT22;15802;45.654;13.804;2023-06-22T13:47:55;32.20;99.90
28608;DHT22;15802;45.654;13.804;2023-06-22T13:50:21;32.20;99.90
28608;DHT22;15802;45.654;13.804;2023-06-22T13:52:46;32.30;99.90
28608;DHT22;15802;45.654;13.804;2023-06-22T13:55:12;32.30;99.90
28608;DHT22;15802;45.654;13.804;2023-06-22T13:57:39;32.20;99.90
28608;DHT22;15802;45.654;13.804;2023-06-22T14:00:05;32.20;99.90
28608;DHT22;15802;45.654;13.804;2023-06-22T14:02:31;32.20;99.90
28608;DHT22;15802;45.654;13.804;2023-06-22T14:04:57;32.10;99.90
28608;DHT22;15802;45.654;13.804;2023-06-22T14:07:22;32.20;99.90
28608;DHT22;15802;45.654;13.804;2023-06-22T14:09:49;32.20;99.90
28608;DHT22;15802;45.654;13.804;2023-06-22T14:12:15;32.10;99.90
28608;DHT22;15802;45.654;13.804;2023-06-22T14:14:43;32.10;99.90
28608;DHT22;15802;45.654;13.804;2023-06-22T14:17:08;32.20;99.90
28608;DHT22;15802;45.654;13.804;2023-06-22T14:19:34;32.40;99.90
28608;DHT22;15802;45.654;13.804;2023-06-22T14:22:00;32.40;99.90
28608;DHT22;15802;45.654;13.804;2023-06-22T14:24:25;32.30;99.90
28608;DHT22;15802;45.654;13.804;2023-06-22T14:26:51;32.30;99.90
28608;DHT22;15802;45.654;13.804;2023-06-22T14:29:17;32.30;99.90
28608;DHT22;15802;45.654;13.804;2023-06-22T14:31:44;32.20;99.90
28608;DHT22;15802;45.654;13.804;2023-06-22T14:34:10;32.10;99.90
28608;DHT22;15802;45.654;13.804;2023-06-22T14:36:36;32.10;99.90
28608;DHT22;15802;45.654;13.804;2023-06-22T14:39:04;32.10;99.90
28608;DHT22;15802;45.654;13.804;2023-06-22T14:41:30;32.10;99.90
28608;DHT22;15802;45.654;13.804;2023-06-22T14:43:56;32.10;99.90
28608;DHT22;15802;45.654;13.804;2023-06-22T14:46:21;32.10;99.90
28608;DHT22;15802;45.654;13.804;2023-06-22T14:48:47;32.20;99.90
28608;DHT22;15802;45.654;13.804;2023-06-22T14:51:13;32.20;99.90
28608;DHT22;15802;45.654;13.804;2023-06-22T14:53:39;32.20;99.90
28608;DHT22;15802;45.654;13.804;2023-06-22T14:56:04;32.20;99.90
28608;DHT22;15802;45.654;13.804;2023-06-22T14:58:30;32.10;99.90
28608;DHT22;15802;45.654;13.804;2023-06-22T15:01:00;32.20;99.90
28608;DHT22;15802;45.654;13.804;2023-06-22T15:03:25;32.20;99.90
28608;DHT22;15802;45.654;13.804;2023-06-22T15:05:54;32.10;99.90
28608;DHT22;15802;45.654;13.804;2023-06-22T15:08:20;32.10;99.90
28608;DHT22;15802;45.654;13.804;2023-06-22T15:10:46;32.10;99.90
28608;DHT22;15802;45.654;13.804;2023-06-22T15:13:12;32.20;99.90
28608;DHT22;15802;45.654;13.804;2023-06-22T15:15:37;32.20;99.90